Time,TemperatureF,DewpointF,PressureIn,WindDirection,WindDirectionDegrees,WindSpeedMPH,WindSpeedGustMPH,Humidity,HourlyPrecipIn,Conditions,Clouds,dailyrainin,SolarRadiationWatts/m^2,SoftwareType,DateUTC
2014-11-28 00:04:00,47.7,47.2,29.57,ENE,57,3.0,4.0,98,0.00,,,0.00,0,Wunderground v.1.15,2014-11-28 00:04:00,
2014-11-28 00:14:00,47.9,47.4,29.57,East,94,3.0,3.0,98,0.00,,,0.00,0,Wunderground v.1.15,2014-11-28 00:14:00,
2014-11-28 00:24:00,47.9,47.4,29.57,ENE,74,3.0,3.0,98,0.00,,,0.00,0,Wunderground v.1.15,2014-11-28 00:24:00,
2014-11-28 00:34:00,47.9,47.4,29.57,ENE,63,3.0,3.0,98,0.00,,,0.00,0,Wunderground v.1.15,2014-11-28 00:34:00,
2014-11-28 00:44:00,47.9,47.4,29.57,ENE,63,3.0,5.0,98,0.00,,,0.00,0,Wunderground v.1.15,2014-11-28 00:44:00,
2014-11-28 00:54:00,48.0,47.7,29.57,ENE,61,4.0,4.0,99,0.00,,,0.00,0,Wunderground v.1.15,2014-11-28 00:54:00,
2014-11-28 01:04:00,48.2,47.9,29.57,East,84,3.0,5.0,99,0.00,,,0.00,0,Wunderground v.1.15,2014-11-28 01:04:00,
2014-11-28 01:14:00,48.2,47.7,29.57,East,81,2.0,3.0,98,0.00,,,0.00,0,Wunderground v.1.15,2014-11-28 01:14:00,
2014-11-28 01:24:00,48.1,47.6,29.57,NE,46,2.0,5.0,98,0.00,,,0.00,0,Wunderground v.1.15,2014-11-28 01:24:00,
2014-11-28 01:34:00,48.1,47.8,29.57,ENE,70,3.0,3.0,99,0.00,,,0.00,0,Wunderground v.1.15,2014-11-28 01:34:00,
2014-11-28 01:44:00,48.2,47.9,29.57,ENE,66,4.0,4.0,99,0.00,,,0.00,0,Wunderground v.1.15,2014-11-28 01:44:00,
2014-11-28 01:54:00,48.4,48.1,29.57,NE,51,4.0,4.0,99,0.00,,,0.00,0,Wunderground v.1.15,2014-11-28 01:54:00,
2014-11-28 02:04:00,48.4,48.1,29.57,NE,36,4.0,4.0,99,0.00,,,0.00,0,Wunderground v.1.15,2014-11-28 02:04:00,
2014-11-28 02:14:00,48.6,48.3,29.57,ENE,72,4.0,4.0,99,0.00,,,0.00,0,Wunderground v.1.15,2014-11-28 02:14:00,
2014-11-28 02:24:00,48.7,48.4,29.57,East,84,3.0,5.0,99,0.00,,,0.00,0,Wunderground v.1.15,2014-11-28 02:24:00,
2014-11-28 02:34:00,48.8,48.5,29.58,ENE,59,4.0,4.0,99,0.00,,,0.00,0,Wunderground v.1.15,2014-11-28 02:34:00,
2014-11-28 02:44:00,48.9,48.6,29.58,NE,44,4.0,4.0,99,0.00,,,0.00,0,Wunderground v.1.15,2014-11-28 02:44:00,
2014-11-28 02:54:00,48.9,48.6,29.58,NNE,32,4.0,6.0,99,0.00,,,0.00,0,Wunderground v.1.15,2014-11-28 02:54:00,
2014-11-28 03:04:00,48.9,48.6,29.58,East,82,6.0,8.0,99,0.00,,,0.00,0,Wunderground v.1.15,2014-11-28 03:04:00,
2014-11-28 03:14:00,49.0,48.7,29.58,ENE,78,6.0,6.0,99,0.00,,,0.00,0,Wunderground v.1.15,2014-11-28 03:14:00,
2014-11-28 03:24:00,49.0,48.7,29.58,NE,51,6.0,7.0,99,0.00,,,0.00,0,Wunderground v.1.15,2014-11-28 03:24:00,
2014-11-28 03:34:00,49.0,48.7,29.57,NE,54,5.0,7.0,99,0.00,,,0.00,0,Wunderground v.1.15,2014-11-28 03:34:00,
2014-11-28 03:44:00,49.0,48.7,29.57,ENE,63,6.0,9.0,99,0.00,,,0.00,0,Wunderground v.1.15,2014-11-28 03:44:00,
2014-11-28 03:54:00,49.0,48.5,29.57,East,81,5.0,6.0,98,0.00,,,0.00,0,Wunderground v.1.15,2014-11-28 03:54:00,
2014-11-28 04:04:00,49.1,48.6,29.57,ENE,68,5.0,5.0,98,0.00,,,0.00,0,Wunderground v.1.15,2014-11-28 04:04:00,
2014-11-28 04:14:00,49.3,48.8,29.58,East,84,7.0,7.0,98,0.00,,,0.00,0,Wunderground v.1.15,2014-11-28 04:14:00,
2014-11-28 04:24:00,49.4,48.9,29.58,ESE,103,6.0,7.0,98,0.00,,,0.00,0,Wunderground v.1.15,2014-11-28 04:24:00,
2014-11-28 04:34:00,49.5,49.0,29.58,NE,42,6.0,6.0,98,0.00,,,0.00,0,Wunderground v.1.15,2014-11-28 04:34:00,
2014-11-28 04:44:00,49.6,49.1,29.58,East,85,6.0,8.0,98,0.00,,,0.00,0,Wunderground v.1.15,2014-11-28 04:44:00,
2014-11-28 04:54:00,49.6,49.1,29.58,ENE,74,7.0,7.0,98,0.00,,,0.00,0,Wunderground v.1.15,2014-11-28 04:54:00,
2014-11-28 05:04:00,49.6,48.8,29.58,ENE,76,6.0,7.0,97,0.00,,,0.00,0,Wunderground v.1.15,2014-11-28 05:04:00,
2014-11-28 05:14:00,49.7,48.9,29.58,ENE,64,6.0,6.0,97,0.00,,,0.00,0,Wunderground v.1.15,2014-11-28 05:14:00,
2014-11-28 05:24:00,49.7,48.9,29.58,ENE,77,6.0,7.0,97,0.00,,,0.00,0,Wunderground v.1.15,2014-11-28 05:24:00,
2014-11-28 05:34:00,49.7,48.9,29.58,East,81,6.0,6.0,97,0.00,,,0.00,0,Wunderground v.1.15,2014-11-28 05:34:00,
2014-11-28 05:44:00,49.7,48.9,29.58,ENE,67,5.0,7.0,97,0.00,,,0.00,0,Wunderground v.1.15,2014-11-28 05:44:00,
2014-11-28 05:54:00,49.7,48.9,29.58,NE,46,4.0,4.0,97,0.00,,,0.00,0,Wunderground v.1.15,2014-11-28 05:54:00,
2014-11-28 06:04:00,49.8,49.0,29.58,East,91,5.0,5.0,97,0.00,,,0.00,0,Wunderground v.1.15,2014-11-28 06:04:00,
2014-11-28 06:14:00,49.9,49.1,29.58,East,90,4.0,4.0,97,0.00,,,0.00,0,Wunderground v.1.15,2014-11-28 06:14:00,
2014-11-28 06:24:00,49.9,49.1,29.58,NE,41,4.0,4.0,97,0.00,,,0.00,0,Wunderground v.1.15,2014-11-28 06:24:00,
2014-11-28 06:34:00,49.9,49.1,29.58,ENE,75,4.0,4.0,97,0.00,,,0.00,0,Wunderground v.1.15,2014-11-28 06:34:00,
2014-11-28 06:44:00,49.9,49.1,29.58,NE,47,4.0,4.0,97,0.00,,,0.00,0,Wunderground v.1.15,2014-11-28 06:44:00,
2014-11-28 06:54:00,49.9,49.1,29.58,ENE,59,5.0,5.0,97,0.00,,,0.00,0,Wunderground v.1.15,2014-11-28 06:54:00,
2014-11-28 07:04:00,50.1,49.3,29.58,NE,51,5.0,5.0,97,0.00,,,0.00,0,Wunderground v.1.15,2014-11-28 07:04:00,
2014-11-28 07:14:00,50.0,49.2,29.58,NE,46,4.0,5.0,97,0.00,,,0.00,0,Wunderground v.1.15,2014-11-28 07:14:00,
2014-11-28 07:24:00,50.1,49.3,29.58,East,79,4.0,9.0,97,0.00,,,0.00,0,Wunderground v.1.15,2014-11-28 07:24:00,
2014-11-28 07:34:00,50.2,49.4,29.58,ENE,57,5.0,5.0,97,0.00,,,0.00,0,Wunderground v.1.15,2014-11-28 07:34:00,
2014-11-28 07:44:00,50.2,49.4,29.58,ENE,76,4.0,4.0,97,0.00,,,0.00,0,Wunderground v.1.15,2014-11-28 07:44:00,
2014-11-28 07:54:00,50.3,49.5,29.59,ENE,63,4.0,4.0,97,0.00,,,0.00,0,Wunderground v.1.15,2014-11-28 07:54:00,
2014-11-28 08:04:00,50.4,49.6,29.59,ENE,75,4.0,5.0,97,0.00,,,0.00,0,Wunderground v.1.15,2014-11-28 08:04:00,
2014-11-28 08:14:00,50.5,49.7,29.59,ENE,71,4.0,4.0,97,0.00,,,0.00,5,Wunderground v.1.15,2014-11-28 08:14:00,
2014-11-28 08:24:00,50.6,49.8,29.59,ENE,63,4.0,4.0,97,0.00,,,0.00,7,Wunderground v.1.15,2014-11-28 08:24:00,
2014-11-28 08:34:00,50.7,49.6,29.59,East,90,4.0,5.0,96,0.00,,,0.00,9,Wunderground v.1.15,2014-11-28 08:34:00,
2014-11-28 08:44:00,50.8,49.7,29.59,ENE,57,5.0,5.0,96,0.00,,,0.00,9,Wunderground v.1.15,2014-11-28 08:44:00,
2014-11-28 08:54:00,50.9,49.8,29.59,East,86,6.0,6.0,96,0.00,,,0.00,11,Wunderground v.1.15,2014-11-28 08:54:00,
2014-11-28 09:04:00,51.0,49.9,29.60,NNE,15,5.0,5.0,96,0.00,,,0.00,11,Wunderground v.1.15,2014-11-28 09:04:00,
2014-11-28 09:14:00,51.1,49.7,29.60,ENE,67,6.0,6.0,95,0.00,,,0.00,25,Wunderground v.1.15,2014-11-28 09:14:00,
2014-11-28 09:24:00,51.2,49.8,29.59,NE,46,6.0,6.0,95,0.00,,,0.00,26,Wunderground v.1.15,2014-11-28 09:24:00,
2014-11-28 09:34:00,51.3,49.9,29.60,NE,42,5.0,6.0,95,0.00,,,0.00,23,Wunderground v.1.15,2014-11-28 09:34:00,
2014-11-28 09:44:00,51.5,50.4,29.60,ENE,67,5.0,5.0,96,0.00,,,0.00,21,Wunderground v.1.15,2014-11-28 09:44:00,
2014-11-28 09:54:00,51.5,50.4,29.60,NE,43,5.0,5.0,96,0.00,,,0.00,23,Wunderground v.1.15,2014-11-28 09:54:00,
2014-11-28 10:04:00,51.6,50.5,29.60,ENE,61,5.0,5.0,96,0.00,,,0.00,21,Wunderground v.1.15,2014-11-28 10:04:00,
2014-11-28 10:14:00,51.6,50.5,29.60,East,80,6.0,6.0,96,0.00,,,0.00,16,Wunderground v.1.15,2014-11-28 10:14:00,
2014-11-28 10:24:00,51.6,50.8,29.60,ENE,59,5.0,8.0,97,0.00,,,0.00,30,Wunderground v.1.15,2014-11-28 10:24:00,
2014-11-28 10:34:00,51.6,50.8,29.60,NE,53,6.0,10.0,97,0.00,,,0.00,25,Wunderground v.1.15,2014-11-28 10:34:00,
2014-11-28 10:44:00,51.6,50.8,29.60,East,83,6.0,6.0,97,0.00,,,0.00,42,Wunderground v.1.15,2014-11-28 10:44:00,
2014-11-28 10:54:00,51.7,50.9,29.60,East,80,5.0,6.0,97,0.00,,,0.00,37,Wunderground v.1.15,2014-11-28 10:54:00,
2014-11-28 11:04:00,51.7,50.6,29.60,ESE,117,5.0,5.0,96,0.00,,,0.00,39,Wunderground v.1.15,2014-11-28 11:04:00,
2014-11-28 11:14:00,51.9,50.8,29.60,East,88,5.0,5.0,96,0.00,,,0.00,30,Wunderground v.1.15,2014-11-28 11:14:00,
2014-11-28 11:24:00,51.9,50.8,29.60,East,87,4.0,6.0,96,0.00,,,0.00,44,Wunderground v.1.15,2014-11-28 11:24:00,